Time;durP1;ratioP1;P1;durP2;ratioP2;P2;SDS_P1;SDS_P2;PMS_P1;PMS_P2;Temp;Humidity;BMP_temperature;BMP_pressure;BME280_temperature;BME280_humidity;BME280_pressure;Samples;Min_cycle;Max_cycle;Signal;HPM_P1;HPM_P2
2021/01/15 00:01:06;;;;;;;15.35;7.00;;;0.60;99.90;;;;;;4864778;29;20436;-79
2021/01/15 00:03:36;;;;;;;10.80;5.32;;;0.60;99.90;;;;;;4863171;29;20038;-79
2021/01/15 00:06:06;;;;;;;12.73;6.15;;;0.50;99.90;;;;;;4862823;29;20104;-78
2021/01/15 00:08:39;;;;;;;17.52;6.45;;;0.40;99.90;;;;;;4862700;29;20041;-77
2021/01/15 00:11:06;;;;;;;13.02;6.15;;;0.40;99.90;;;;;;4846263;29;20041;-78
2021/01/15 00:13:32;;;;;;;10.82;5.90;;;0.40;99.90;;;;;;4863382;29;20115;-77
2021/01/15 00:15:58;;;;;;;13.93;6.18;;;0.40;99.90;;;;;;4848672;29;20030;-79
2021/01/15 00:18:23;;;;;;;11.52;5.88;;;0.40;99.90;;;;;;4844834;29;20150;-78
2021/01/15 00:20:49;;;;;;;22.05;6.88;;;0.40;99.90;;;;;;4861029;29;20057;-79
2021/01/15 00:23:17;;;;;;;11.68;6.40;;;0.30;99.90;;;;;;4863888;29;20387;-76
2021/01/15 00:25:43;;;;;;;;;;;0.40;99.90;;;;;;4861056;29;20033;-78
2021/01/15 00:28:09;;;;;;;12.40;6.78;;;0.40;99.90;;;;;;4857651;29;19916;-78
2021/01/15 00:30:35;;;;;;;11.77;6.50;;;0.30;99.90;;;;;;4860311;29;20039;-78
2021/01/15 00:33:00;;;;;;;12.88;5.97;;;0.40;99.90;;;;;;4858006;29;20073;-78
2021/01/15 00:35:26;;;;;;;14.00;6.63;;;0.40;99.90;;;;;;4859463;29;20347;-77
2021/01/15 00:37:52;;;;;;;14.75;6.63;;;0.40;99.90;;;;;;4865493;29;20060;-77
2021/01/15 00:40:18;;;;;;;16.90;6.28;;;0.30;99.90;;;;;;4855480;29;20105;-79
2021/01/15 00:42:44;;;;;;;13.75;6.28;;;0.30;99.90;;;;;;4855693;29;20693;-78
2021/01/15 00:45:10;;;;;;;12.40;5.15;;;0.30;99.90;;;;;;4857177;29;20033;-78
2021/01/15 00:47:36;;;;;;;10.95;5.15;;;0.30;99.90;;;;;;4856658;29;20065;-78
2021/01/15 00:50:03;;;;;;;9.88;6.18;;;0.30;99.90;;;;;;4856877;29;20041;-78
2021/01/15 00:52:28;;;;;;;10.98;5.50;;;0.30;99.90;;;;;;4861070;29;20117;-79
2021/01/15 00:54:54;;;;;;;12.75;6.15;;;0.30;99.90;;;;;;4858546;29;20050;-78
2021/01/15 00:57:19;;;;;;;11.68;6.90;;;0.30;99.90;;;;;;4856416;29;20135;-78
2021/01/15 00:59:46;;;;;;;11.88;6.45;;;0.30;99.90;;;;;;4845754;29;20030;-77
2021/01/15 01:02:12;;;;;;;10.90;6.28;;;0.40;99.90;;;;;;4860799;29;20029;-79
2021/01/15 01:04:37;;;;;;;9.77;5.18;;;0.40;99.90;;;;;;4844059;29;20029;-78
2021/01/15 01:07:03;;;;;;;10.48;5.57;;;0.40;99.90;;;;;;4857987;29;20505;-78
2021/01/15 01:09:28;;;;;;;9.02;5.38;;;0.50;99.90;;;;;;4859231;29;20056;-79
2021/01/15 01:11:57;;;;;;;11.73;5.80;;;0.50;99.90;;;;;;4856681;29;20161;-79
2021/01/15 01:14:23;;;;;;;11.13;4.97;;;0.50;99.90;;;;;;4861161;29;20053;-79
2021/01/15 01:16:48;;;;;;;11.30;5.63;;;0.40;99.90;;;;;;4844269;29;20064;-78
2021/01/15 01:19:14;;;;;;;9.73;5.75;;;0.50;99.90;;;;;;4859596;29;20025;-79
2021/01/15 01:21:40;;;;;;;12.43;6.38;;;0.60;99.90;;;;;;4858620;29;20026;-79
2021/01/15 01:24:06;;;;;;;9.93;5.25;;;0.60;99.90;;;;;;4859832;29;20034;-78
2021/01/15 01:26:31;;;;;;;11.35;6.07;;;0.70;99.90;;;;;;4859954;29;20510;-79
2021/01/15 01:28:57;;;;;;;10.32;6.35;;;0.70;99.90;;;;;;4860771;29;20057;-79
2021/01/15 01:31:23;;;;;;;11.32;6.00;;;0.70;99.90;;;;;;4856748;29;20045;-78
2021/01/15 01:33:49;;;;;;;11.15;5.88;;;0.70;99.90;;;;;;4860518;29;20022;-78
2021/01/15 01:36:14;;;;;;;12.85;6.70;;;0.80;99.90;;;;;;4861522;29;20033;-79
2021/01/15 01:38:44;;;;;;;16.42;6.47;;;0.80;99.90;;;;;;4857769;29;20109;-78
2021/01/15 01:41:10;;;;;;;9.32;5.55;;;0.90;99.90;;;;;;4843181;29;20040;-79
2021/01/15 01:43:36;;;;;;;16.02;6.40;;;0.90;99.90;;;;;;4844116;29;20064;-79
2021/01/15 01:46:07;;;;;;;11.25;5.80;;;0.90;99.90;;;;;;4860226;29;20104;-79
2021/01/15 01:48:34;;;;;;;13.50;6.20;;;1.00;99.90;;;;;;4859531;29;20053;-79
2021/01/15 01:51:01;;;;;;;11.57;6.40;;;1.00;99.90;;;;;;4860024;29;20030;-78
2021/01/15 01:53:34;;;;;;;9.85;6.60;;;1.10;99.90;;;;;;4837025;29;20046;-77
2021/01/15 01:56:02;;;;;;;12.95;5.85;;;1.20;99.90;;;;;;4858785;29;20053;-79
2021/01/15 01:58:30;;;;;;;13.02;6.40;;;1.20;99.90;;;;;;4858052;29;20056;-78
2021/01/15 02:01:01;;;;;;;9.88;6.40;;;1.30;99.90;;;;;;4858473;29;20032;-77
2021/01/15 02:03:27;;;;;;;12.02;5.75;;;1.30;99.90;;;;;;4859733;29;20040;-78
2021/01/15 02:05:53;;;;;;;10.60;6.35;;;1.30;99.90;;;;;;4859545;29;20025;-78
2021/01/15 02:08:19;;;;;;;12.57;6.43;;;1.40;99.90;;;;;;4859385;29;20037;-75
2021/01/15 02:11:02;;;;;;;13.00;6.53;;;1.40;99.90;;;;;;4842434;29;20041;-78
2021/01/15 02:14:00;;;;;;;14.05;5.75;;;1.40;99.90;;;;;;4861542;29;20033;-79
2021/01/15 02:16:29;;;;;;;14.48;6.18;;;1.50;99.90;;;;;;4859626;29;20103;-78
2021/01/15 02:19:07;;;;;;;12.88;6.38;;;1.60;99.90;;;;;;4860893;29;20124;-79
2021/01/15 02:21:41;;;;;;;9.27;5.57;;;1.60;99.90;;;;;;4861021;29;20037;-78
2021/01/15 02:24:35;;;;;;;12.30;5.88;;;1.70;99.90;;;;;;4860228;29;20037;-78
2021/01/15 02:27:37;;;;;;;10.68;5.80;;;1.80;99.90;;;;;;4864120;29;20410;-78
2021/01/15 02:30:20;;;;;;;9.80;5.90;;;1.70;99.90;;;;;;4861480;29;20085;-78
2021/01/15 02:33:23;;;;;;;10.55;5.82;;;1.70;99.90;;;;;;4863989;29;20033;-80
2021/01/15 02:35:54;;;;;;;9.25;5.88;;;1.80;99.90;;;;;;4859575;29;20026;-78
2021/01/15 02:38:37;;;;;;;13.05;6.30;;;1.80;99.90;;;;;;4861254;29;20021;-78
2021/01/15 02:41:10;;;;;;;9.98;5.88;;;1.80;99.90;;;;;;4860800;29;20029;-79
2021/01/15 02:43:37;;;;;;;10.82;6.15;;;1.90;99.90;;;;;;4863026;29;20041;-78
2021/01/15 02:46:05;;;;;;;9.18;5.85;;;1.90;99.90;;;;;;4862806;29;20056;-79
2021/01/15 02:48:31;;;;;;;;;;;2.00;99.90;;;;;;4865392;29;20059;-79
2021/01/15 02:50:59;;;;;;;7.93;4.80;;;2.00;99.90;;;;;;4847191;29;19983;-78
2021/01/15 02:53:25;;;;;;;9.50;5.05;;;2.00;99.90;;;;;;4859319;29;20428;-79
2021/01/15 02:55:51;;;;;;;11.23;6.13;;;2.00;99.90;;;;;;4861916;29;20114;-79
2021/01/15 02:58:16;;;;;;;7.32;5.18;;;2.00;99.90;;;;;;4847455;29;20025;-79
2021/01/15 03:00:42;;;;;;;12.23;5.40;;;2.00;99.90;;;;;;4862364;29;20041;-79
2021/01/15 03:03:17;;;;;;;8.65;4.63;;;2.00;99.90;;;;;;4862486;29;20390;-78
2021/01/15 03:05:49;;;;;;;8.40;5.47;;;2.00;99.90;;;;;;4864063;29;20029;-78
2021/01/15 03:08:19;;;;;;;9.07;5.25;;;2.00;99.90;;;;;;4862216;29;20059;-78
2021/01/15 03:10:46;;;;;;;9.52;5.35;;;2.00;99.90;;;;;;4862243;29;20030;-79
2021/01/15 03:13:13;;;;;;;10.82;5.30;;;2.00;99.90;;;;;;4847256;29;20030;-78
2021/01/15 03:15:40;;;;;;;10.25;5.95;;;2.00;99.90;;;;;;4862553;29;20037;-79
2021/01/15 03:18:07;;;;;;;7.57;4.70;;;2.00;99.90;;;;;;4862410;29;20029;-78
2021/01/15 03:20:33;;;;;;;16.35;5.88;;;2.00;99.90;;;;;;4861805;29;20494;-78
2021/01/15 03:22:59;;;;;;;6.72;4.28;;;2.00;99.90;;;;;;4861407;29;20037;-78
2021/01/15 03:25:25;;;;;;;9.40;5.50;;;2.10;99.90;;;;;;4860316;29;20052;-78
2021/01/15 03:27:55;;;;;;;6.60;4.90;;;2.20;99.90;;;;;;4862322;29;20460;-76
2021/01/15 03:30:23;;;;;;;9.80;4.75;;;2.20;99.90;;;;;;4861525;29;20120;-79
2021/01/15 03:32:50;;;;;;;11.98;6.10;;;2.20;99.90;;;;;;4844165;29;20034;-77
2021/01/15 03:35:23;;;;;;;8.85;5.13;;;2.10;99.90;;;;;;4859513;29;20045;-75
2021/01/15 03:37:59;;;;;;;7.75;4.47;;;2.10;99.90;;;;;;4861254;29;20487;-78
2021/01/15 03:40:28;;;;;;;10.13;5.38;;;2.20;99.90;;;;;;4856693;29;20070;-78
2021/01/15 03:42:53;;;;;;;8.50;5.35;;;2.20;99.90;;;;;;4861902;29;20025;-78
2021/01/15 03:45:19;;;;;;;10.02;5.05;;;2.20;99.90;;;;;;4860893;29;20033;-78
2021/01/15 03:47:45;;;;;;;7.05;4.38;;;2.20;99.90;;;;;;4858611;29;20487;-78
2021/01/15 03:50:12;;;;;;;8.27;4.82;;;2.30;99.90;;;;;;4862147;29;20045;-77
2021/01/15 03:52:37;;;;;;;7.40;4.80;;;2.30;99.90;;;;;;4859828;29;20037;-76
2021/01/15 03:55:04;;;;;;;9.27;5.78;;;2.40;99.90;;;;;;4859886;29;20120;-78
2021/01/15 03:57:30;;;;;;;7.20;4.10;;;2.40;99.90;;;;;;4860074;29;20038;-76
2021/01/15 03:59:55;;;;;;;9.25;4.65;;;2.40;99.90;;;;;;4861146;29;20053;-78
2021/01/15 04:02:21;;;;;;;11.98;5.22;;;2.40;99.90;;;;;;4858929;29;20474;-77
2021/01/15 04:04:49;;;;;;;8.82;4.60;;;2.30;99.90;;;;;;4859491;29;20033;-79
2021/01/15 04:07:21;;;;;;;9.50;5.00;;;2.30;99.90;;;;;;4860105;29;20503;-78
2021/01/15 04:09:47;;;;;;;8.98;5.57;;;2.30;99.90;;;;;;4860339;29;20057;-78
2021/01/15 04:12:13;;;;;;;7.38;4.65;;;2.30;99.90;;;;;;4859386;29;20041;-78
2021/01/15 04:14:40;;;;;;;7.53;4.72;;;2.40;99.90;;;;;;4861430;29;20037;-78
2021/01/15 04:17:06;;;;;;;7.70;4.70;;;2.40;99.90;;;;;;4860048;29;20084;-78
2021/01/15 04:19:32;;;;;;;7.18;4.60;;;2.40;99.90;;;;;;4859351;29;20053;-77
2021/01/15 04:21:57;;;;;;;8.82;4.72;;;2.40;99.90;;;;;;4844276;29;20033;-77
2021/01/15 04:24:24;;;;;;;7.07;4.90;;;2.50;99.90;;;;;;4861536;29;20049;-76
2021/01/15 04:26:58;;;;;;;8.35;5.00;;;2.40;99.90;;;;;;4859438;29;20547;-78
2021/01/15 04:29:24;;;;;;;9.40;5.20;;;2.40;99.90;;;;;;4860343;29;20033;-75
2021/01/15 04:31:50;;;;;;;11.45;5.90;;;2.40;99.90;;;;;;4858619;29;20085;-77
2021/01/15 04:34:16;;;;;;;7.35;4.45;;;2.40;99.90;;;;;;4843947;29;20461;-77
2021/01/15 04:36:42;;;;;;;9.57;5.35;;;2.50;99.90;;;;;;4858151;29;20021;-77
2021/01/15 04:39:08;;;;;;;7.07;4.53;;;2.50;99.90;;;;;;4861598;29;20026;-77
2021/01/15 04:41:34;;;;;;;7.25;4.38;;;2.50;99.90;;;;;;4860540;29;20126;-77
2021/01/15 04:44:01;;;;;;;10.10;4.55;;;2.50;99.90;;;;;;4860161;29;20029;-76
2021/01/15 04:46:27;;;;;;;8.75;4.28;;;2.50;99.90;;;;;;4859943;29;20439;-77
2021/01/15 04:48:54;;;;;;;6.90;4.30;;;2.50;99.90;;;;;;4859405;29;20045;-77
2021/01/15 04:51:26;;;;;;;8.57;4.95;;;2.40;99.90;;;;;;4859967;29;20056;-78
2021/01/15 04:54:02;;;;;;;7.57;4.78;;;2.50;99.90;;;;;;4861128;29;20018;-78
2021/01/15 04:56:50;;;;;;;10.55;4.57;;;2.40;99.90;;;;;;4838415;29;20060;-77
2021/01/15 04:59:18;;;;;;;6.35;4.32;;;2.40;99.90;;;;;;4844128;29;20041;-77
2021/01/15 05:01:48;;;;;;;11.43;5.47;;;2.50;99.90;;;;;;4848727;29;20030;-76
2021/01/15 05:04:15;;;;;;;6.22;4.10;;;2.60;99.90;;;;;;4859875;29;20033;-77
2021/01/15 05:06:51;;;;;;;7.22;4.18;;;2.60;99.90;;;;;;4861167;29;20414;-77
2021/01/15 05:09:21;;;;;;;12.35;4.80;;;2.60;99.90;;;;;;4844665;29;20029;-76
2021/01/15 05:11:47;;;;;;;7.75;4.55;;;2.60;99.90;;;;;;4858781;29;20033;-76
2021/01/15 05:14:20;;;;;;;7.53;5.03;;;2.60;99.90;;;;;;4860434;29;20030;-77
2021/01/15 05:16:48;;;;;;;9.75;4.88;;;2.60;99.90;;;;;;4858597;29;20041;-76
2021/01/15 05:19:15;;;;;;;8.23;4.93;;;2.60;99.90;;;;;;4857231;29;20089;-75
2021/01/15 05:21:41;;;;;;;11.43;5.63;;;2.60;99.90;;;;;;4856824;29;20398;-78
2021/01/15 05:24:09;;;;;;;8.57;5.05;;;2.50;99.90;;;;;;4856255;29;20037;-78
2021/01/15 05:26:38;;;;;;;13.27;5.47;;;2.60;99.90;;;;;;4854829;29;20061;-77
2021/01/15 05:29:06;;;;;;;9.07;4.45;;;2.60;99.90;;;;;;4853809;29;20305;-77
2021/01/15 05:31:51;;;;;;;6.80;3.97;;;2.60;99.90;;;;;;4855268;29;20057;-77
2021/01/15 05:34:18;;;;;;;12.35;5.57;;;2.50;99.90;;;;;;4838793;29;20041;-78
2021/01/15 05:36:44;;;;;;;9.00;5.38;;;2.50;99.90;;;;;;4854160;29;20026;-78
2021/01/15 05:39:16;;;;;;;8.10;5.70;;;2.40;99.90;;;;;;4855134;29;20029;-77
2021/01/15 05:41:44;;;;;;;10.40;5.45;;;2.40;99.90;;;;;;4854261;29;20037;-78
2021/01/15 05:44:10;;;;;;;8.13;5.27;;;2.50;99.90;;;;;;4854266;29;20029;-77
2021/01/15 05:46:46;;;;;;;9.38;5.55;;;2.50;99.90;;;;;;4859418;29;20022;-76
2021/01/15 05:49:12;;;;;;;9.90;6.00;;;2.50;99.90;;;;;;4859517;29;20049;-78
2021/01/15 05:51:40;;;;;;;7.60;5.25;;;2.60;99.90;;;;;;4860214;29;20026;-77
2021/01/15 05:54:08;;;;;;;10.07;5.78;;;2.60;99.90;;;;;;4859865;29;20037;-78
2021/01/15 05:56:40;;;;;;;;;;;2.60;99.90;;;;;;4860599;29;20044;-76
2021/01/15 05:59:16;;;;;;;10.68;5.80;;;2.60;99.90;;;;;;4856348;29;20350;-77
2021/01/15 06:01:47;;;;;;;8.50;5.57;;;2.60;99.90;;;;;;4858805;29;20040;-77
2021/01/15 06:04:32;;;;;;;12.02;5.00;;;2.60;99.90;;;;;;4868560;29;20527;-81
2021/01/15 06:07:06;;;;;;;9.70;5.03;;;2.60;99.90;;;;;;4863916;29;20033;-79
2021/01/15 06:09:32;;;;;;;8.65;5.13;;;2.60;99.90;;;;;;4863270;29;20383;-77
2021/01/15 06:12:05;;;;;;;9.13;6.03;;;2.60;99.90;;;;;;4864329;29;20025;-75
2021/01/15 06:14:31;;;;;;;9.85;5.97;;;2.60;99.90;;;;;;4864165;29;20483;-79
2021/01/15 06:17:05;;;;;;;11.38;6.25;;;2.60;99.90;;;;;;4864209;29;20021;-79
2021/01/15 06:20:02;;;;;;;9.35;5.18;;;2.70;99.90;;;;;;4863912;29;20456;-78
2021/01/15 06:22:45;;;;;;;10.23;6.18;;;2.80;99.90;;;;;;4850143;29;20049;-81
2021/01/15 06:25:28;;;;;;;9.75;5.55;;;2.70;99.90;;;;;;4837564;29;20030;-79
2021/01/15 06:27:56;;;;;;;14.77;6.20;;;2.80;99.90;;;;;;4871248;29;20038;-80
2021/01/15 06:30:25;;;;;;;12.02;5.63;;;2.80;99.90;;;;;;4849996;29;20030;-80
2021/01/15 06:32:53;;;;;;;15.13;5.88;;;2.80;99.90;;;;;;4862267;29;20021;-80
2021/01/15 06:35:37;;;;;;;9.50;6.25;;;2.80;99.90;;;;;;4860065;29;20036;-79
2021/01/15 06:38:08;;;;;;;13.40;6.45;;;2.90;99.90;;;;;;4860436;29;20034;-79
2021/01/15 06:40:41;;;;;;;10.50;4.70;;;2.90;99.90;;;;;;4852296;29;20089;-78
2021/01/15 06:43:11;;;;;;;9.80;5.32;;;2.90;99.90;;;;;;4865446;29;20076;-76
2021/01/15 06:45:43;;;;;;;10.18;5.13;;;2.90;99.90;;;;;;4863163;29;20080;-77
2021/01/15 06:48:13;;;;;;;10.52;5.53;;;2.90;99.90;;;;;;4861656;29;20045;-75
2021/01/15 06:50:40;;;;;;;8.32;5.43;;;3.00;99.90;;;;;;4862639;29;20403;-74
2021/01/15 06:53:17;;;;;;;9.88;5.80;;;3.00;99.90;;;;;;4861983;29;20029;-74
2021/01/15 06:55:49;;;;;;;12.55;6.38;;;2.90;99.90;;;;;;4860190;29;20025;-74
2021/01/15 06:58:26;;;;;;;12.07;6.10;;;2.80;99.90;;;;;;4861917;29;20120;-74
2021/01/15 07:01:14;;;;;;;13.15;6.40;;;2.80;99.90;;;;;;4861124;29;20033;-75
2021/01/15 07:04:14;;;;;;;10.68;5.85;;;2.90;99.90;;;;;;4861209;29;20034;-75
2021/01/15 07:06:55;;;;;;;11.68;6.25;;;2.90;99.90;;;;;;4865770;29;20042;-75
2021/01/15 07:09:26;;;;;;;11.10;5.75;;;2.90;99.90;;;;;;4841590;29;20131;-75
2021/01/15 07:11:54;;;;;;;14.15;6.68;;;3.00;99.90;;;;;;4846403;29;20042;-75
2021/01/15 07:14:25;;;;;;;;;;;3.00;99.90;;;;;;4858645;29;20483;-74
2021/01/15 07:16:54;;;;;;;12.77;5.93;;;3.00;99.90;;;;;;4858877;29;20258;-75
2021/01/15 07:19:37;;;;;;;11.98;6.10;;;2.90;99.90;;;;;;4844190;29;20082;-75
2021/01/15 07:22:03;;;;;;;9.27;5.47;;;2.90;99.90;;;;;;4858486;29;20447;-74
2021/01/15 07:24:31;;;;;;;11.43;6.07;;;2.90;99.90;;;;;;4861228;29;20061;-75
2021/01/15 07:26:58;;;;;;;11.93;5.88;;;2.90;99.90;;;;;;4859780;29;20033;-76
2021/01/15 07:29:25;;;;;;;14.13;7.15;;;2.90;99.90;;;;;;4842679;29;20486;-74
2021/01/15 07:31:55;;;;;;;11.55;6.00;;;3.00;99.90;;;;;;4858933;29;20514;-74
2021/01/15 07:34:24;;;;;;;9.57;5.80;;;3.00;99.90;;;;;;4859905;29;20128;-74
2021/01/15 07:36:50;;;;;;;10.85;6.20;;;3.00;99.90;;;;;;4844746;29;20125;-74
2021/01/15 07:39:23;;;;;;;11.07;6.28;;;3.00;99.90;;;;;;4845759;29;20034;-73
2021/01/15 07:41:53;;;;;;;15.25;6.80;;;3.00;99.90;;;;;;4870158;29;20534;-75
2021/01/15 07:44:22;;;;;;;14.80;7.18;;;3.00;99.90;;;;;;4858108;29;20037;-74
2021/01/15 07:46:59;;;;;;;11.40;6.68;;;2.90;99.90;;;;;;4855037;29;20116;-74
2021/01/15 07:49:41;;;;;;;10.73;6.28;;;3.00;99.90;;;;;;4854699;29;20050;-76
2021/01/15 07:52:08;;;;;;;13.45;6.63;;;3.00;99.90;;;;;;4857489;29;20096;-75
2021/01/15 07:55:00;;;;;;;13.57;6.88;;;3.10;99.90;;;;;;4856328;29;20111;-75
2021/01/15 07:57:27;;;;;;;10.77;5.97;;;3.20;99.90;;;;;;4856950;29;20383;-74
2021/01/15 07:59:53;;;;;;;14.20;6.53;;;3.30;99.90;;;;;;4855985;29;20026;-75
2021/01/15 08:02:20;;;;;;;11.70;6.47;;;3.30;99.90;;;;;;4858403;29;20494;-74
2021/01/15 08:04:45;;;;;;;11.40;6.25;;;3.30;99.90;;;;;;4857672;29;20357;-75
2021/01/15 08:07:46;;;;;;;13.10;6.03;;;3.30;99.90;;;;;;4867660;29;20089;-75
2021/01/15 08:10:24;;;;;;;11.77;5.90;;;3.30;99.90;;;;;;4840489;29;20090;-75
2021/01/15 08:12:49;;;;;;;9.73;4.68;;;3.20;99.90;;;;;;4839453;29;20715;-75
2021/01/15 08:15:32;;;;;;;13.25;6.65;;;3.10;99.90;;;;;;4858059;29;20061;-75
2021/01/15 08:18:01;;;;;;;13.70;6.70;;;3.00;99.90;;;;;;4857485;29;20018;-75
2021/01/15 08:20:27;;;;;;;10.98;5.68;;;3.00;99.90;;;;;;4860519;29;20549;-74
2021/01/15 08:22:53;;;;;;;10.98;6.40;;;3.10;99.90;;;;;;4857388;29;20394;-74
2021/01/15 08:25:27;;;;;;;10.20;5.47;;;3.10;99.90;;;;;;4854546;29;20033;-74
2021/01/15 08:27:53;;;;;;;11.00;6.10;;;3.20;99.90;;;;;;4855321;29;20036;-74
2021/01/15 08:30:19;;;;;;;12.30;7.07;;;3.10;99.90;;;;;;4857442;29;20557;-76
2021/01/15 08:32:45;;;;;;;12.57;6.70;;;3.20;99.90;;;;;;4838769;29;20178;-75
2021/01/15 08:35:13;;;;;;;11.10;6.55;;;3.20;99.90;;;;;;4856080;29;20121;-75
2021/01/15 08:37:40;;;;;;;15.15;6.88;;;3.20;99.90;;;;;;4837793;29;20028;-74
2021/01/15 08:40:06;;;;;;;15.10;6.55;;;3.20;99.90;;;;;;4857650;29;20037;-74
2021/01/15 08:42:32;;;;;;;13.18;6.60;;;3.20;99.90;;;;;;4855941;29;20124;-74
2021/01/15 08:44:59;;;;;;;11.55;6.63;;;3.20;99.90;;;;;;4850742;29;20112;-74
2021/01/15 08:47:27;;;;;;;13.60;6.53;;;3.30;99.90;;;;;;4854032;29;20186;-74
2021/01/15 08:49:57;;;;;;;14.40;6.70;;;3.30;99.90;;;;;;4854604;29;20068;-73
2021/01/15 08:52:32;;;;;;;10.13;6.13;;;3.20;99.90;;;;;;4854798;29;20021;-75
2021/01/15 08:55:01;;;;;;;12.15;7.03;;;3.20;99.90;;;;;;4840167;29;20033;-74
2021/01/15 08:57:28;;;;;;;14.10;6.00;;;3.20;99.90;;;;;;4859165;29;20033;-74
2021/01/15 08:59:55;;;;;;;13.43;6.35;;;3.10;99.90;;;;;;4855338;29;20038;-75
2021/01/15 09:02:22;;;;;;;14.80;6.97;;;3.20;99.90;;;;;;4858189;29;20041;-74
2021/01/15 09:04:49;;;;;;;16.98;7.60;;;3.30;99.90;;;;;;4857164;29;20040;-75
2021/01/15 09:07:17;;;;;;;12.65;7.13;;;3.30;99.90;;;;;;4859121;29;20046;-75
2021/01/15 09:09:43;;;;;;;12.10;6.57;;;3.30;99.90;;;;;;4857894;29;20376;-74
2021/01/15 09:12:10;;;;;;;16.85;7.53;;;3.20;99.90;;;;;;4859465;29;20061;-75
2021/01/15 09:14:36;;;;;;;11.88;6.28;;;3.30;99.90;;;;;;4857961;29;20088;-75
2021/01/15 09:17:06;;;;;;;11.32;6.22;;;3.30;99.90;;;;;;4855439;29;20053;-75
2021/01/15 09:19:34;;;;;;;11.73;6.57;;;3.30;99.90;;;;;;4852168;29;20025;-76
2021/01/15 09:22:07;;;;;;;14.02;6.70;;;3.30;99.90;;;;;;4854072;29;20026;-76
2021/01/15 09:24:34;;;;;;;15.93;7.97;;;3.30;99.90;;;;;;4855333;29;20029;-75
2021/01/15 09:27:04;;;;;;;9.77;6.30;;;3.20;99.90;;;;;;4840322;29;20098;-75
2021/01/15 09:29:32;;;;;;;12.00;6.60;;;3.20;99.90;;;;;;4853870;29;20070;-75
2021/01/15 09:31:58;;;;;;;20.08;6.95;;;3.20;99.90;;;;;;4859271;29;20694;-77
2021/01/15 09:34:26;;;;;;;13.45;6.72;;;3.20;99.90;;;;;;4853908;29;20038;-75
2021/01/15 09:36:53;;;;;;;11.02;6.10;;;3.20;99.90;;;;;;4855298;29;20110;-75
2021/01/15 09:39:23;;;;;;;13.77;6.70;;;3.20;99.90;;;;;;4839787;29;20082;-75
2021/01/15 09:41:51;;;;;;;15.35;7.25;;;3.20;99.90;;;;;;4853445;29;20026;-75
2021/01/15 09:44:18;;;;;;;11.15;6.00;;;3.20;99.90;;;;;;4852896;29;20061;-75
2021/01/15 09:46:45;;;;;;;11.38;6.57;;;3.30;99.90;;;;;;4854239;29;20029;-74
2021/01/15 09:49:11;;;;;;;13.40;7.22;;;3.20;99.90;;;;;;4852652;29;20048;-75
2021/01/15 09:51:36;;;;;;;11.32;6.13;;;3.20;99.90;;;;;;4853174;29;20478;-75
2021/01/15 09:54:02;;;;;;;13.00;6.90;;;3.30;99.90;;;;;;4852755;29;20101;-75
2021/01/15 09:56:29;;;;;;;12.00;6.63;;;3.20;99.90;;;;;;4853534;29;20025;-74
2021/01/15 09:58:56;;;;;;;13.35;6.57;;;3.30;99.90;;;;;;4854257;29;20070;-78
2021/01/15 10:01:23;;;;;;;11.05;5.18;;;3.30;99.90;;;;;;4855433;29;20026;-76
2021/01/15 10:03:50;;;;;;;13.45;6.97;;;3.40;99.90;;;;;;4854742;29;20033;-74
2021/01/15 10:06:16;;;;;;;14.02;6.63;;;3.40;99.90;;;;;;4854004;29;20026;-75
2021/01/15 10:08:43;;;;;;;12.88;6.80;;;3.40;99.90;;;;;;4853817;29;20022;-76
2021/01/15 10:11:09;;;;;;;13.93;7.22;;;3.40;99.90;;;;;;4838712;29;20030;-75
2021/01/15 10:13:35;;;;;;;13.00;6.68;;;3.40;99.90;;;;;;4855682;29;20037;-74
2021/01/15 10:16:07;;;;;;;15.80;7.38;;;3.30;99.90;;;;;;4839159;29;20055;-75
2021/01/15 10:18:33;;;;;;;15.20;7.68;;;3.50;99.90;;;;;;4855307;29;20034;-75
2021/01/15 10:20:59;;;;;;;18.00;6.22;;;3.60;99.90;;;;;;4854313;29;20044;-75
2021/01/15 10:23:24;;;;;;;13.20;7.25;;;3.60;99.90;;;;;;4853758;29;20037;-75
2021/01/15 10:25:50;;;;;;;17.83;6.40;;;3.60;99.90;;;;;;4854288;29;20033;-76
2021/01/15 10:28:16;;;;;;;12.00;6.90;;;3.50;99.90;;;;;;4838480;29;20034;-75
2021/01/15 10:30:46;;;;;;;16.70;6.95;;;3.40;99.90;;;;;;4856703;29;20072;-77
2021/01/15 10:33:13;;;;;;;22.05;7.72;;;3.40;99.90;;;;;;4855336;29;20043;-77
2021/01/15 10:35:39;;;;;;;17.63;6.78;;;3.40;99.90;;;;;;4854598;29;20053;-77
2021/01/15 10:38:04;;;;;;;10.70;6.45;;;3.50;99.90;;;;;;4843475;29;20033;-78
2021/01/15 10:40:30;;;;;;;19.92;6.72;;;3.50;99.90;;;;;;4860231;29;20049;-77
2021/01/15 10:42:56;;;;;;;15.15;6.95;;;3.50;99.90;;;;;;4845215;29;20026;-76
2021/01/15 10:45:23;;;;;;;13.75;6.72;;;3.50;99.90;;;;;;4860022;29;20041;-77
2021/01/15 10:47:49;;;;;;;15.88;6.85;;;3.60;99.90;;;;;;4845445;29;20040;-79
2021/01/15 10:50:16;;;;;;;13.38;6.68;;;3.60;99.90;;;;;;4857036;29;20054;-77
2021/01/15 10:52:41;;;;;;;13.30;7.22;;;3.60;99.90;;;;;;4837067;29;20029;-76
2021/01/15 10:55:08;;;;;;;12.13;6.55;;;3.60;99.90;;;;;;4852172;29;20044;-78
2021/01/15 10:57:33;;;;;;;14.73;7.15;;;3.70;99.90;;;;;;4852286;29;20036;-76
2021/01/15 10:59:59;;;;;;;17.02;6.90;;;3.60;99.90;;;;;;4852852;29;20403;-78
2021/01/15 11:02:25;;;;;;;9.52;6.35;;;3.60;99.90;;;;;;4856217;29;20093;-75
2021/01/15 11:04:51;;;;;;;14.48;8.32;;;3.60;99.90;;;;;;4835530;29;21895;-74
2021/01/15 11:07:16;;;;;;;11.88;7.00;;;3.60;99.90;;;;;;4851111;29;20355;-73
2021/01/15 11:09:42;;;;;;;13.27;8.13;;;3.70;99.90;;;;;;4851848;29;20033;-73
2021/01/15 11:12:08;;;;;;;16.67;7.50;;;3.70;99.90;;;;;;4852360;29;20093;-76
2021/01/15 11:14:35;;;;;;;15.80;7.57;;;3.60;99.90;;;;;;4852062;29;20506;-78
2021/01/15 11:17:01;;;;;;;14.97;7.63;;;3.60;99.90;;;;;;4851532;29;20029;-75
2021/01/15 11:19:27;;;;;;;17.77;8.23;;;3.60;99.90;;;;;;4857191;29;20483;-75
2021/01/15 11:21:53;;;;;;;15.85;8.63;;;3.60;99.90;;;;;;4846258;29;20029;-74
2021/01/15 11:24:18;;;;;;;13.68;6.88;;;3.70;99.90;;;;;;4852480;29;20037;-76
2021/01/15 11:26:44;;;;;;;20.42;7.63;;;3.70;99.90;;;;;;4858567;29;20053;-74
2021/01/15 11:29:10;;;;;;;14.65;7.18;;;3.80;99.90;;;;;;4861892;29;20029;-74
2021/01/15 11:31:38;;;;;;;15.70;7.75;;;3.90;99.90;;;;;;4862699;29;20033;-74
2021/01/15 11:34:04;;;;;;;17.17;8.38;;;3.90;99.90;;;;;;4859514;29;20027;-74
2021/01/15 11:36:32;;;;;;;18.52;7.93;;;3.90;99.90;;;;;;4858208;29;20047;-74
2021/01/15 11:39:10;;;;;;;11.32;7.30;;;3.90;99.90;;;;;;4858804;29;20090;-74
2021/01/15 11:41:36;;;;;;;12.80;5.50;;;3.90;99.90;;;;;;4845327;29;20036;-73
2021/01/15 11:44:04;;;;;;;11.23;6.57;;;4.00;99.90;;;;;;4844277;29;20026;-74
2021/01/15 11:46:30;;;;;;;14.45;7.07;;;4.10;99.90;;;;;;4844281;29;20033;-74
2021/01/15 11:48:59;;;;;;;20.73;7.00;;;4.10;99.90;;;;;;4858538;29;20034;-74
2021/01/15 11:51:25;;;;;;;14.10;7.35;;;4.20;99.90;;;;;;4860944;29;20494;-74
2021/01/15 11:53:50;;;;;;;13.35;6.88;;;4.20;99.90;;;;;;4843930;29;20033;-73
2021/01/15 11:56:17;;;;;;;20.80;7.78;;;4.20;99.90;;;;;;4861464;29;20479;-74
2021/01/15 11:58:43;;;;;;;16.65;7.38;;;4.10;99.90;;;;;;4859190;29;20025;-73
2021/01/15 12:01:08;;;;;;;19.38;7.65;;;4.10;99.90;;;;;;4859357;29;20084;-73
2021/01/15 12:03:34;;;;;;;12.85;7.47;;;4.00;99.90;;;;;;4860340;29;20033;-73
2021/01/15 12:06:00;;;;;;;14.73;7.60;;;4.10;99.90;;;;;;4858373;29;20030;-74
2021/01/15 12:08:26;;;;;;;12.73;6.78;;;4.20;99.90;;;;;;4859783;29;20033;-74
2021/01/15 12:10:59;;;;;;;20.48;7.63;;;4.10;99.90;;;;;;4845398;29;20041;-74
2021/01/15 12:13:25;;;;;;;12.20;6.82;;;4.10;99.90;;;;;;4844000;29;20036;-74
2021/01/15 12:15:54;;;;;;;14.10;7.50;;;4.10;99.90;;;;;;4859397;29;20026;-75
2021/01/15 12:18:21;;;;;;;13.27;6.50;;;4.20;99.90;;;;;;4859072;29;20394;-74
2021/01/15 12:20:47;;;;;;;14.63;6.90;;;4.20;99.90;;;;;;4861266;29;20401;-74
2021/01/15 12:23:14;;;;;;;14.82;6.85;;;4.20;99.90;;;;;;4858809;29;20037;-73
2021/01/15 12:25:40;;;;;;;10.15;6.35;;;4.20;99.90;;;;;;4858277;29;20045;-73
2021/01/15 12:28:13;;;;;;;14.00;6.82;;;4.30;99.90;;;;;;4860261;29;20025;-74
2021/01/15 12:30:46;;;;;;;15.43;7.28;;;4.20;99.90;;;;;;4843261;29;20052;-74
2021/01/15 12:33:16;;;;;;;15.95;7.00;;;4.20;99.90;;;;;;4858538;29;20472;-74
2021/01/15 12:35:44;;;;;;;15.25;6.88;;;4.20;99.90;;;;;;4858841;29;20021;-74
2021/01/15 12:38:11;;;;;;;16.17;8.10;;;4.10;99.90;;;;;;4855925;29;20037;-74
2021/01/15 12:40:38;;;;;;;14.70;7.70;;;4.20;99.90;;;;;;4858646;29;20362;-74
2021/01/15 12:43:04;;;;;;;20.52;7.63;;;4.20;99.90;;;;;;4841734;29;20107;-75
2021/01/15 12:45:33;;;;;;;24.75;8.43;;;4.20;99.90;;;;;;4854842;29;20041;-75
2021/01/15 12:47:59;;;;;;;14.38;7.18;;;4.30;99.90;;;;;;4851320;29;20121;-75
2021/01/15 12:50:25;;;;;;;15.35;8.20;;;4.20;99.90;;;;;;4850301;29;20558;-77
2021/01/15 12:52:52;;;;;;;17.02;7.30;;;4.30;99.90;;;;;;4853884;29;20029;-77
2021/01/15 12:55:23;;;;;;;14.15;8.15;;;4.30;99.90;;;;;;4849808;29;20089;-77
2021/01/15 12:57:49;;;;;;;14.55;7.68;;;4.30;99.90;;;;;;4848872;29;20029;-78
2021/01/15 13:00:15;;;;;;;15.27;7.30;;;4.30;99.90;;;;;;4852629;29;20090;-75